WEATHER FORECAST DUBAI AIRPORT
 
Monday, April 23, 2018 (22:41 UTC)
Dubai International Airport
Last Updated: 23-04-2018 (22:38Z)
Wind Dir/Speed: ESE at 3 KT
Temperature: 30.7 °C
Rel. Humidity: 39 %
Pressure: 1007.8 hPa
Visibility: 10000 m
  • METAR OMDB 232230Z 11009KT CAVOK 31/16 Q1007 NOSIG
NEXT 5 DAY FORECAST (OMDB): as on 23-April-2018
MONDAY
HIGH:
40 °C
LOW:
30 °C
TUESDAY
HIGH:
37 °C
LOW:
30 °C
WEDNESDAY
HIGH:
35 °C
LOW:
29 °C
THURSDAY
HIGH:
36 °C
LOW:
29 °C
FRIDAY
HIGH:
39 °C
LOW:
30 °C

DUBAI AIRPORT WEATHER FORECAST FOR 30 HOUR:
DUBAI TAF:
TAF OMDB 231627Z 2318/2500 10008KT 8000 NSC 
 BECMG 2401/2403 17010KT 
 PROB30 2403/2407 4000 DU 
 BECMG 2407/2409 30012KT 
 BECMG 2416/2418 07005KT=
VALID FROM:
2018-04-23 18:00Z
VALID TILL:
2018-04-25 00:00Z
SURFACE WIND:
E'LY 08KT

BECOMING S'LY 10KT FROM 0100Z-0300Z TUESDAY

BECOMING WNW'LY 12KT FROM 0700Z-0900Z TUESDAY

BECOMING ENE'LY 05KT FROM 1600Z-1800Z TUESDAY.
VISIBILITY:
07-10 KM.
30% PROBABILITY OF 4000 M BETWEEN 0300Z-0700Z TUESDAY.
WEATHER:
FINE,
30% PROBABILITY OF LIFTED DUST BETWEEN 0300Z-0700Z TUESDAY.
CLOUD:
NIL SIGNIFICANT.
TEMPERATURE:
MIN TEMPERATURE 30°C AROUND 0230Z TUESDAY

MAX TEMPERATURE 37°C AROUND 0830Z TUESDAY.
HUMIDITY:
MAX HUMIDITY 40% AROUND 0230Z TUESDAY

MIN HUMIDITY 20% AROUND 0830Z TUESDAY.
WIND SHEAR:
NIL SIGNIFICANT.
TEMPERATURE INVERSION:
NIL SIGNIFICANT.
COMMENTS:
NIL.